createdAt,value
2022-07-27T00:00:30.794Z,2.27
2022-07-27T00:02:04.011Z,2.00
2022-07-27T00:03:37.371Z,2.00
2022-07-27T00:05:10.835Z,2.40
2022-07-27T00:06:44.458Z,2.20
2022-07-27T00:08:20.344Z,1.83
2022-07-27T00:09:53.467Z,1.63
2022-07-27T00:11:27.268Z,1.97
2022-07-27T00:13:00.399Z,1.80
2022-07-27T00:14:35.112Z,2.20
2022-07-27T00:16:09.313Z,2.17
2022-07-27T00:17:42.496Z,2.20
2022-07-27T00:19:15.768Z,1.90
2022-07-27T00:20:48.926Z,1.60
2022-07-27T00:22:22.819Z,1.67
2022-07-27T00:23:56.463Z,1.60
2022-07-27T00:25:28.746Z,1.60
2022-07-27T00:27:01.866Z,1.40
2022-07-27T00:28:35.032Z,1.10
2022-07-27T00:30:09.266Z,1.70
2022-07-27T00:31:42.680Z,1.30
2022-07-27T00:33:17.234Z,1.40
2022-07-27T00:34:50.744Z,1.80
2022-07-27T00:36:23.885Z,1.50
2022-07-27T00:37:56.081Z,1.57
2022-07-27T00:39:31.101Z,1.70
2022-07-27T00:41:04.352Z,1.90
2022-07-27T00:42:37.090Z,2.30
2022-07-27T00:44:10.866Z,1.80
2022-07-27T00:45:45.445Z,2.13
2022-07-27T00:47:18.549Z,2.30
2022-07-27T00:48:52.067Z,2.10
2022-07-27T00:50:25.383Z,2.50
2022-07-27T00:51:59.451Z,2.40
2022-07-27T00:53:32.710Z,2.37
2022-07-27T00:55:08.452Z,2.70
2022-07-27T00:56:41.945Z,2.30
2022-07-27T00:58:15.385Z,2.47
2022-07-27T00:59:48.518Z,2.87
2022-07-27T01:01:23.201Z,2.70
2022-07-27T01:02:57.291Z,2.60
2022-07-27T01:04:30.927Z,2.80
2022-07-27T01:06:04.519Z,3.13
2022-07-27T01:07:37.673Z,2.97
2022-07-27T01:09:28.292Z,2.67
2022-07-27T01:11:03.133Z,2.40
2022-07-27T01:12:35.264Z,2.90
2022-07-27T01:14:08.988Z,2.20
2022-07-27T01:15:43.504Z,2.90
2022-07-27T01:17:18.620Z,2.13
2022-07-27T01:18:51.966Z,2.63
2022-07-27T01:20:25.407Z,2.53
2022-07-27T01:21:59.912Z,2.47
2022-07-27T01:23:33.555Z,2.57
2022-07-27T01:25:07.453Z,3.00
2022-07-27T01:26:40.778Z,2.47
2022-07-27T01:28:13.910Z,2.37
2022-07-27T01:29:47.037Z,2.47
2022-07-27T01:31:20.185Z,2.60
2022-07-27T01:33:00.230Z,2.60
2022-07-27T01:34:34.518Z,2.43
2022-07-27T01:36:07.945Z,2.67
2022-07-27T01:37:42.627Z,2.20
2022-07-27T01:39:21.413Z,2.60
2022-07-27T01:40:55.923Z,2.20
2022-07-27T01:42:29.076Z,2.70
2022-07-27T01:44:02.217Z,2.50
2022-07-27T01:45:35.429Z,2.70
2022-07-27T01:47:14.580Z,2.10
2022-07-27T01:48:48.190Z,2.37
2022-07-27T01:50:20.419Z,2.60
2022-07-27T01:51:53.520Z,2.60
2022-07-27T01:53:28.051Z,3.23
2022-07-27T01:55:01.384Z,2.50
2022-07-27T01:56:34.586Z,2.80
2022-07-27T01:58:09.638Z,2.30
2022-07-27T01:59:42.757Z,2.40
2022-07-27T02:01:16.287Z,2.73
2022-07-27T02:02:49.459Z,2.50
2022-07-27T02:04:24.710Z,2.30
2022-07-27T02:05:57.847Z,2.80
2022-07-27T02:07:30.032Z,2.63
2022-07-27T02:09:04.639Z,2.47
2022-07-27T02:10:37.534Z,2.60
2022-07-27T02:12:28.125Z,2.47
2022-07-27T02:14:01.269Z,2.43
2022-07-27T02:15:43.029Z,2.40
2022-07-27T02:17:16.754Z,2.50
2022-07-27T02:18:51.973Z,2.83
2022-07-27T02:20:26.628Z,2.33
2022-07-27T02:21:59.792Z,2.30
2022-07-27T02:23:33.880Z,2.30
2022-07-27T02:25:10.423Z,2.50
2022-07-27T02:26:43.512Z,2.63
2022-07-27T02:28:16.638Z,2.87
2022-07-27T02:29:49.758Z,2.20
2022-07-27T02:31:22.996Z,2.47
2022-07-27T02:32:56.207Z,2.83
2022-07-27T02:34:29.876Z,2.70
2022-07-27T02:36:03.093Z,2.50
2022-07-27T02:37:36.196Z,2.33
2022-07-27T02:39:10.434Z,2.30
2022-07-27T02:40:45.301Z,2.23
2022-07-27T02:42:18.445Z,2.50
2022-07-27T02:43:51.564Z,2.67
2022-07-27T02:45:23.833Z,2.60
2022-07-27T02:46:57.135Z,2.43
2022-07-27T02:48:30.394Z,2.53
2022-07-27T02:50:03.798Z,2.20
2022-07-27T02:51:36.914Z,2.47
2022-07-27T02:53:12.717Z,2.50
2022-07-27T02:54:46.002Z,2.43
2022-07-27T02:58:07.511Z,2.40
2022-07-27T02:59:40.833Z,2.60
2022-07-27T03:01:14.181Z,2.43
2022-07-27T03:02:50.236Z,2.57
2022-07-27T03:04:23.453Z,2.63
2022-07-27T03:05:56.670Z,2.70
2022-07-27T03:07:29.718Z,2.30
2022-07-27T03:09:03.710Z,2.70
2022-07-27T03:10:36.999Z,2.67
2022-07-27T03:12:11.747Z,2.30
2022-07-27T03:13:45.226Z,2.70
2022-07-27T03:15:18.420Z,2.60
2022-07-27T03:16:51.542Z,2.50
2022-07-27T03:18:24.825Z,2.70
2022-07-27T03:19:57.921Z,2.73
2022-07-27T03:21:31.630Z,2.30
2022-07-27T03:23:04.817Z,2.40
2022-07-27T03:24:37.147Z,2.60
2022-07-27T03:26:10.460Z,2.60
2022-07-27T03:27:44.957Z,2.63
2022-07-27T03:29:18.077Z,2.57
2022-07-27T03:30:51.534Z,2.57
2022-07-27T03:32:24.855Z,2.20
2022-07-27T03:33:58.115Z,2.00
2022-07-27T03:35:30.359Z,2.20
2022-07-27T03:37:03.503Z,1.90
2022-07-27T03:38:36.672Z,1.97
2022-07-27T03:40:11.397Z,2.60
2022-07-27T03:41:44.718Z,2.00
2022-07-27T03:43:19.196Z,2.17
2022-07-27T03:44:52.059Z,1.90
2022-07-27T03:46:25.217Z,1.70
2022-07-27T03:47:58.599Z,2.07
2022-07-27T03:49:32.187Z,1.90
2022-07-27T03:51:05.343Z,2.13
2022-07-27T03:52:38.474Z,2.30
2022-07-27T03:54:11.652Z,2.07
2022-07-27T03:55:45.175Z,2.00
2022-07-27T03:57:17.344Z,2.10
2022-07-27T03:58:51.962Z,1.90
2022-07-27T04:00:25.292Z,2.13
2022-07-27T04:01:58.474Z,2.07
2022-07-27T04:03:32.125Z,2.03
2022-07-27T04:05:06.234Z,2.30
2022-07-27T04:06:39.380Z,2.33
2022-07-27T04:08:12.723Z,2.30
2022-07-27T04:09:46.667Z,2.40
2022-07-27T04:11:20.374Z,3.10
2022-07-27T04:12:54.037Z,3.17
2022-07-27T04:14:28.572Z,2.53
2022-07-27T04:16:01.694Z,2.70
2022-07-27T04:17:55.239Z,2.50
2022-07-27T04:19:27.814Z,2.43
2022-07-27T04:21:03.358Z,1.87
2022-07-27T04:22:36.506Z,1.67
2022-07-27T04:24:10.241Z,1.90
2022-07-27T04:25:43.353Z,2.40
2022-07-27T04:27:17.033Z,1.80
2022-07-27T04:28:50.348Z,1.80
2022-07-27T04:30:25.362Z,1.73
2022-07-27T04:31:58.521Z,2.03
2022-07-27T04:33:33.318Z,2.00
2022-07-27T04:35:07.968Z,1.73
2022-07-27T04:36:41.633Z,1.73
2022-07-27T04:38:14.738Z,1.93
2022-07-27T04:39:48.049Z,1.50
2022-07-27T04:41:21.239Z,1.60
2022-07-27T04:42:54.567Z,1.90
2022-07-27T04:44:27.714Z,1.63
2022-07-27T04:46:04.563Z,1.67
2022-07-27T04:47:37.860Z,1.67
2022-07-27T04:49:11.321Z,1.90
2022-07-27T04:50:45.542Z,1.80
2022-07-27T04:52:19.647Z,1.73
2022-07-27T04:53:59.969Z,1.80
2022-07-27T04:55:33.308Z,1.93
2022-07-27T04:57:06.683Z,1.33
2022-07-27T04:58:40.097Z,1.90
2022-07-27T05:00:14.304Z,2.00
2022-07-27T05:01:48.941Z,1.50
2022-07-27T05:03:22.084Z,1.50
2022-07-27T05:04:55.308Z,1.50
2022-07-27T05:06:28.467Z,1.60
2022-07-27T05:08:01.798Z,1.60
2022-07-27T05:09:34.930Z,1.67
2022-07-27T05:11:08.122Z,1.50
2022-07-27T05:12:41.285Z,1.80
2022-07-27T05:14:14.459Z,2.57
2022-07-27T05:15:55.152Z,1.87
2022-07-27T05:17:30.401Z,1.80
2022-07-27T05:19:03.508Z,1.60
2022-07-27T05:20:36.704Z,1.83
2022-07-27T05:22:10.485Z,1.47
2022-07-27T05:23:43.661Z,1.40
2022-07-27T05:25:16.838Z,1.83
2022-07-27T05:26:50.021Z,1.60
2022-07-27T05:28:23.160Z,1.50
2022-07-27T05:29:56.553Z,1.70
2022-07-27T05:31:29.675Z,1.83
2022-07-27T05:33:04.303Z,1.70
2022-07-27T05:34:37.611Z,1.30
2022-07-27T05:36:11.000Z,1.53
2022-07-27T05:37:44.149Z,1.40
2022-07-27T05:39:17.463Z,1.50
2022-07-27T05:40:50.741Z,1.33
2022-07-27T05:42:23.970Z,1.50
2022-07-27T05:43:57.304Z,1.57
2022-07-27T05:45:30.731Z,1.93
2022-07-27T05:47:06.008Z,1.80
2022-07-27T05:48:41.233Z,1.80
2022-07-27T05:50:14.646Z,1.80
2022-07-27T05:51:47.827Z,1.60
2022-07-27T05:53:20.942Z,1.87
2022-07-27T05:54:55.161Z,1.80
2022-07-27T05:56:28.618Z,1.43
2022-07-27T05:58:01.975Z,1.60
2022-07-27T05:59:36.472Z,1.40
2022-07-27T06:01:09.906Z,1.43
2022-07-27T06:02:43.303Z,1.73
2022-07-27T06:04:17.910Z,1.83
2022-07-27T06:05:51.137Z,1.50
2022-07-27T06:07:41.928Z,1.70
2022-07-27T06:09:14.650Z,1.60
2022-07-27T06:10:48.078Z,1.13
2022-07-27T06:12:21.316Z,1.30
2022-07-27T06:14:03.433Z,1.73
2022-07-27T06:15:37.433Z,1.70
2022-07-27T06:17:11.323Z,1.50
2022-07-27T06:18:44.447Z,1.50
2022-07-27T06:20:18.484Z,1.47
2022-07-27T06:21:53.931Z,1.67
2022-07-27T06:23:27.877Z,1.37
2022-07-27T06:25:01.138Z,1.60
2022-07-27T06:26:34.422Z,1.50
2022-07-27T06:28:09.132Z,1.70
2022-07-27T06:29:42.462Z,1.30
2022-07-27T06:31:16.112Z,1.40
2022-07-27T06:32:49.580Z,1.63
2022-07-27T06:34:22.831Z,1.77
2022-07-27T06:35:59.173Z,1.20
2022-07-27T06:37:33.055Z,1.67
2022-07-27T06:39:06.304Z,1.70
2022-07-27T06:40:40.107Z,1.60
2022-07-27T06:42:14.566Z,1.60
2022-07-27T06:43:47.737Z,1.53
2022-07-27T06:45:21.913Z,1.50
2022-07-27T06:46:55.061Z,1.70
2022-07-27T06:48:28.867Z,1.90
2022-07-27T06:50:02.046Z,1.67
2022-07-27T06:51:36.938Z,1.90
2022-07-27T06:53:10.448Z,1.80
2022-07-27T06:54:43.628Z,1.33
2022-07-27T06:56:16.728Z,1.50
2022-07-27T06:57:49.876Z,1.60
2022-07-27T06:59:23.016Z,1.57
2022-07-27T07:00:56.386Z,1.60
2022-07-27T07:02:29.545Z,1.70
2022-07-27T07:04:03.202Z,1.50
2022-07-27T07:05:43.117Z,1.33
2022-07-27T07:07:18.240Z,1.57
2022-07-27T07:08:52.611Z,1.60
2022-07-27T07:10:26.742Z,1.70
2022-07-27T07:11:59.908Z,1.50
2022-07-27T07:13:37.753Z,1.60
2022-07-27T07:15:13.288Z,1.60
2022-07-27T07:16:46.529Z,1.60
2022-07-27T07:18:20.049Z,1.63
2022-07-27T07:19:53.359Z,2.03
2022-07-27T07:21:26.480Z,1.80
2022-07-27T07:23:02.006Z,1.70
2022-07-27T07:24:35.338Z,1.60
2022-07-27T07:26:08.654Z,1.50
2022-07-27T07:27:41.841Z,1.70
2022-07-27T07:29:15.505Z,1.70
2022-07-27T07:30:49.121Z,1.40
2022-07-27T07:32:27.786Z,1.83
2022-07-27T07:34:05.772Z,1.70
2022-07-27T07:35:38.913Z,1.70
2022-07-27T07:37:33.727Z,1.70
2022-07-27T07:39:09.701Z,1.77
2022-07-27T07:40:44.827Z,1.80
2022-07-27T07:42:18.521Z,1.80
2022-07-27T07:43:51.765Z,1.83
2022-07-27T07:45:25.818Z,1.97
2022-07-27T07:46:59.045Z,1.60
2022-07-27T07:48:32.457Z,2.10
2022-07-27T07:50:06.407Z,2.30
2022-07-27T07:51:40.032Z,2.50
2022-07-27T07:53:15.277Z,2.67
2022-07-27T07:54:49.721Z,2.47
2022-07-27T07:56:23.018Z,1.87
2022-07-27T07:57:57.196Z,1.73
2022-07-27T07:59:30.438Z,1.70
2022-07-27T08:01:03.746Z,1.53
2022-07-27T08:02:45.502Z,1.53
2022-07-27T08:04:19.135Z,1.90
2022-07-27T08:05:52.383Z,1.43
2022-07-27T08:07:25.940Z,2.23
2022-07-27T08:08:59.470Z,1.40
2022-07-27T08:10:34.250Z,1.47
2022-07-27T08:12:08.010Z,1.43
2022-07-27T08:13:41.359Z,1.60
2022-07-27T08:15:16.623Z,1.63
2022-07-27T08:16:49.735Z,1.83
2022-07-27T08:18:22.944Z,2.40
2022-07-27T08:19:56.050Z,1.90
2022-07-27T08:21:30.858Z,2.13
2022-07-27T08:23:08.599Z,1.30
2022-07-27T08:24:41.789Z,1.67
2022-07-27T08:26:16.316Z,1.80
2022-07-27T08:27:49.474Z,1.53
2022-07-27T08:29:23.440Z,1.50
2022-07-27T08:31:14.439Z,1.40
2022-07-27T08:32:53.655Z,1.70
2022-07-27T08:34:26.866Z,1.53
2022-07-27T08:36:00.128Z,1.30
2022-07-27T08:37:33.284Z,1.27
2022-07-27T08:39:08.610Z,1.40
2022-07-27T08:40:45.584Z,1.57
2022-07-27T08:42:22.139Z,1.30
2022-07-27T08:43:57.242Z,1.73
2022-07-27T08:45:30.567Z,1.80
2022-07-27T08:47:04.533Z,1.20
2022-07-27T08:48:40.532Z,1.40
2022-07-27T08:50:27.215Z,1.40
2022-07-27T08:52:00.396Z,1.93
2022-07-27T08:53:52.312Z,1.70
2022-07-27T08:55:27.596Z,1.20
2022-07-27T08:57:00.790Z,1.37
2022-07-27T08:58:35.422Z,1.40
2022-07-27T09:00:09.971Z,1.43
2022-07-27T09:01:43.216Z,1.43
2022-07-27T09:03:20.370Z,1.30
2022-07-27T09:04:53.963Z,1.10
2022-07-27T09:06:43.621Z,1.30
2022-07-27T09:08:18.447Z,1.47
2022-07-27T09:09:51.578Z,1.30
2022-07-27T09:11:24.898Z,1.40
2022-07-27T09:12:58.283Z,1.20
2022-07-27T09:14:34.182Z,1.30
2022-07-27T09:16:18.758Z,1.30
2022-07-27T09:17:52.786Z,1.30
2022-07-27T09:19:26.061Z,1.30
2022-07-27T09:21:17.512Z,1.23
2022-07-27T09:22:53.124Z,1.40
2022-07-27T09:24:46.299Z,1.10
2022-07-27T09:26:31.646Z,1.50
2022-07-27T09:28:06.005Z,1.40
2022-07-27T09:29:40.462Z,1.20
2022-07-27T09:31:15.651Z,1.20
2022-07-27T09:32:58.651Z,1.20
2022-07-27T09:34:35.187Z,1.27
2022-07-27T09:36:08.380Z,1.53
2022-07-27T09:37:42.094Z,1.33
2022-07-27T09:39:20.263Z,1.10
2022-07-27T09:41:00.385Z,1.53
2022-07-27T09:43:09.011Z,1.70
2022-07-27T09:44:43.453Z,1.03
2022-07-27T09:46:30.577Z,1.27
2022-07-27T09:48:16.627Z,1.20
2022-07-27T09:49:49.947Z,1.20
2022-07-27T09:53:41.359Z,1.10
2022-07-27T09:55:15.958Z,1.27
2022-07-27T09:57:00.157Z,1.30
2022-07-27T09:58:45.003Z,1.20
2022-07-27T10:00:19.272Z,1.03
2022-07-27T10:01:55.538Z,1.00
2022-07-27T10:03:28.783Z,1.30
2022-07-27T10:05:02.461Z,1.03
2022-07-27T10:07:01.286Z,1.10
2022-07-27T10:08:29.559Z,1.30
2022-07-27T10:10:03.905Z,1.10
2022-07-27T10:11:37.603Z,1.30
2022-07-27T10:13:10.827Z,1.00
2022-07-27T10:14:44.009Z,1.27
2022-07-27T10:16:18.904Z,1.20
2022-07-27T10:18:01.956Z,1.30
2022-07-27T10:19:43.641Z,1.10
2022-07-27T10:21:17.982Z,1.30
2022-07-27T10:22:56.301Z,1.40
2022-07-27T10:24:33.972Z,1.30
2022-07-27T10:29:53.003Z,1.30
2022-07-27T10:31:28.580Z,1.33
2022-07-27T10:33:13.042Z,1.60
2022-07-27T10:34:48.903Z,1.13
2022-07-27T10:36:53.056Z,1.00
2022-07-27T10:38:46.308Z,1.20
2022-07-27T10:40:35.893Z,1.30
2022-07-27T10:42:28.533Z,1.30
2022-07-27T10:44:29.766Z,1.23
2022-07-27T10:46:03.169Z,1.27
2022-07-27T10:47:42.107Z,1.33
2022-07-27T10:49:21.850Z,0.97
2022-07-27T10:50:55.587Z,1.17
2022-07-27T10:52:42.720Z,1.00
2022-07-27T10:54:23.449Z,1.43
2022-07-27T10:55:56.890Z,1.13
2022-07-27T10:57:31.746Z,1.03
2022-07-27T10:59:05.215Z,1.77
2022-07-27T11:00:59.897Z,1.07
2022-07-27T11:02:40.731Z,1.07
2022-07-27T11:04:14.932Z,1.10
2022-07-27T11:06:04.702Z,1.30
2022-07-27T11:08:01.660Z,1.00
2022-07-27T11:11:34.743Z,1.00
2022-07-27T11:13:09.773Z,1.20
2022-07-27T11:14:49.459Z,1.40
2022-07-27T11:16:24.939Z,0.90
2022-07-27T11:18:03.452Z,1.27
2022-07-27T11:19:38.448Z,1.30
2022-07-27T11:21:25.806Z,1.00
2022-07-27T11:23:49.537Z,1.03
2022-07-27T11:24:56.231Z,1.00
2022-07-27T11:26:32.457Z,0.97
2022-07-27T11:28:08.343Z,1.40
2022-07-27T11:29:43.804Z,1.47
2022-07-27T11:31:32.435Z,1.30
2022-07-27T11:33:10.493Z,1.60
2022-07-27T11:34:43.857Z,1.40
2022-07-27T11:36:18.599Z,1.53
2022-07-27T11:38:03.130Z,1.37
2022-07-27T11:39:59.767Z,1.30
2022-07-27T11:42:03.019Z,1.30
2022-07-27T11:43:39.027Z,1.50
2022-07-27T11:45:12.807Z,1.50
2022-07-27T11:46:47.606Z,1.50
2022-07-27T11:48:20.800Z,1.73
2022-07-27T11:49:54.123Z,1.50
2022-07-27T11:51:29.273Z,1.70
2022-07-27T11:53:02.534Z,1.80
2022-07-27T11:54:37.871Z,1.93
2022-07-27T11:56:10.225Z,2.50
2022-07-27T11:57:43.711Z,2.23
2022-07-27T11:59:19.951Z,1.77
2022-07-27T12:00:53.305Z,1.97
2022-07-27T12:02:27.516Z,1.73
2022-07-27T12:04:15.316Z,1.80
2022-07-27T12:05:51.006Z,1.70
2022-07-27T12:07:32.509Z,2.30
2022-07-27T12:09:06.732Z,1.70
2022-07-27T12:10:40.205Z,2.10
2022-07-27T12:12:15.903Z,1.40
2022-07-27T12:13:48.205Z,1.40
2022-07-27T12:15:44.147Z,1.27
2022-07-27T12:17:27.282Z,1.30
2022-07-27T12:19:00.500Z,1.00
2022-07-27T12:20:35.386Z,1.10
2022-07-27T12:22:09.424Z,0.97
2022-07-27T12:23:52.657Z,1.30
2022-07-27T12:25:29.921Z,1.23
2022-07-27T12:27:06.756Z,1.10
2022-07-27T12:28:40.318Z,1.33
2022-07-27T12:30:15.489Z,1.30
2022-07-27T12:31:50.351Z,1.20
2022-07-27T12:33:28.592Z,1.30
2022-07-27T12:35:01.980Z,1.10
2022-07-27T12:36:41.317Z,1.30
2022-07-27T12:38:14.791Z,1.10
2022-07-27T12:39:50.450Z,1.40
2022-07-27T12:41:27.647Z,1.10
2022-07-27T12:43:02.793Z,1.23
2022-07-27T12:44:37.599Z,1.20
2022-07-27T12:46:15.688Z,0.83
2022-07-27T12:47:49.031Z,1.20
2022-07-27T12:49:25.801Z,0.97
2022-07-27T12:51:02.019Z,1.60
2022-07-27T12:52:36.541Z,1.23
2022-07-27T12:54:09.846Z,1.30
2022-07-27T12:55:46.139Z,1.47
2022-07-27T12:57:39.624Z,0.97
2022-07-27T12:59:12.018Z,1.10
2022-07-27T13:00:45.618Z,1.10
2022-07-27T13:02:19.605Z,1.00
2022-07-27T13:03:52.937Z,0.93
2022-07-27T13:05:26.337Z,1.00
2022-07-27T13:06:59.568Z,1.00
2022-07-27T13:08:33.710Z,0.83
2022-07-27T13:10:09.658Z,1.20
2022-07-27T13:11:47.841Z,0.80
2022-07-27T13:13:24.577Z,1.00
2022-07-27T13:15:00.058Z,0.90
2022-07-27T13:16:33.382Z,1.10
2022-07-27T13:18:08.218Z,0.90
2022-07-27T13:19:41.847Z,0.87
2022-07-27T13:21:15.311Z,1.40
2022-07-27T13:22:48.766Z,0.93
2022-07-27T13:24:22.416Z,1.10
2022-07-27T13:25:55.691Z,1.20
2022-07-27T13:27:30.347Z,0.83
2022-07-27T13:29:03.743Z,1.00
2022-07-27T13:30:37.089Z,0.90
2022-07-27T13:32:10.399Z,1.00
2022-07-27T13:33:43.685Z,1.10
2022-07-27T13:35:17.919Z,1.00
2022-07-27T13:36:51.233Z,1.10
2022-07-27T13:38:24.532Z,1.27
2022-07-27T13:39:57.811Z,1.00
2022-07-27T13:41:31.042Z,1.30
2022-07-27T13:43:12.070Z,1.77
2022-07-27T13:45:08.470Z,1.23
2022-07-27T13:46:39.110Z,1.00
2022-07-27T13:48:13.264Z,1.20
2022-07-27T13:49:46.625Z,1.10
2022-07-27T13:51:19.829Z,1.10
2022-07-27T13:52:53.067Z,1.30
2022-07-27T13:54:26.371Z,1.10
2022-07-27T13:56:01.477Z,1.10
2022-07-27T13:57:35.888Z,1.33
2022-07-27T13:59:11.811Z,1.10
2022-07-27T14:00:45.471Z,1.20
2022-07-27T14:02:22.928Z,1.20
2022-07-27T14:03:56.690Z,1.20
2022-07-27T14:05:30.479Z,1.23
2022-07-27T14:07:06.931Z,1.03
2022-07-27T14:08:40.241Z,1.20
2022-07-27T14:10:31.407Z,1.30
2022-07-27T14:12:05.319Z,1.13
2022-07-27T14:13:38.652Z,1.10
2022-07-27T14:15:13.810Z,1.20
2022-07-27T14:16:47.091Z,1.00
2022-07-27T14:18:20.570Z,0.90
2022-07-27T14:19:53.733Z,1.17
2022-07-27T14:21:27.065Z,1.10
2022-07-27T14:23:00.727Z,1.10
2022-07-27T14:24:37.955Z,0.90
2022-07-27T14:26:11.992Z,1.20
2022-07-27T14:27:44.261Z,1.30
2022-07-27T14:29:17.471Z,1.10
2022-07-27T14:30:52.551Z,1.10
2022-07-27T14:32:25.766Z,1.10
2022-07-27T14:33:59.003Z,1.33
2022-07-27T14:35:34.635Z,1.30
2022-07-27T14:37:11.630Z,1.07
2022-07-27T14:38:45.262Z,1.13
2022-07-27T14:40:18.528Z,1.20
2022-07-27T14:41:51.815Z,1.00
2022-07-27T14:43:25.277Z,1.10
2022-07-27T14:44:58.549Z,1.10
2022-07-27T14:46:33.249Z,1.10
2022-07-27T14:48:06.881Z,1.23
2022-07-27T14:49:41.668Z,1.20
2022-07-27T14:51:14.996Z,0.90
2022-07-27T14:52:48.382Z,1.03
2022-07-27T14:54:21.693Z,1.20
2022-07-27T14:55:55.018Z,1.20
2022-07-27T14:57:28.637Z,1.10
2022-07-27T14:59:01.886Z,0.97
2022-07-27T15:00:38.094Z,0.97
2022-07-27T15:02:13.151Z,1.20
2022-07-27T15:03:47.074Z,1.13
2022-07-27T15:05:20.689Z,1.00
2022-07-27T15:06:56.636Z,1.50
2022-07-27T15:08:30.083Z,1.00
2022-07-27T15:10:03.769Z,1.00
2022-07-27T15:11:37.955Z,1.20
2022-07-27T15:13:11.170Z,1.13
2022-07-27T15:14:44.576Z,0.90
2022-07-27T15:16:18.058Z,0.80
2022-07-27T15:17:53.626Z,0.90
2022-07-27T15:19:26.885Z,0.83
2022-07-27T15:21:00.078Z,1.00
2022-07-27T15:22:32.361Z,1.07
2022-07-27T15:24:06.052Z,1.30
2022-07-27T15:25:39.272Z,0.90
2022-07-27T15:27:13.872Z,1.10
2022-07-27T15:28:47.132Z,0.93
2022-07-27T15:30:20.393Z,0.90
2022-07-27T15:31:53.945Z,0.90
2022-07-27T15:33:28.678Z,1.40
2022-07-27T15:35:01.926Z,0.90
2022-07-27T15:36:40.588Z,1.00
2022-07-27T15:38:16.956Z,0.90
2022-07-27T15:39:49.371Z,1.37
2022-07-27T15:41:22.558Z,1.20
2022-07-27T15:42:55.790Z,1.30
2022-07-27T15:44:28.982Z,1.00
2022-07-27T15:46:02.284Z,1.10
2022-07-27T15:47:35.476Z,1.10
2022-07-27T15:49:14.737Z,1.10
2022-07-27T15:50:51.645Z,0.93
2022-07-27T15:52:24.845Z,0.83
2022-07-27T15:53:58.471Z,1.10
2022-07-27T15:55:32.037Z,1.00
2022-07-27T15:57:05.695Z,1.10
2022-07-27T15:58:38.920Z,1.23
2022-07-27T16:00:13.439Z,0.90
2022-07-27T16:01:47.343Z,0.87
2022-07-27T16:03:21.733Z,1.20
2022-07-27T16:04:56.447Z,1.10
2022-07-27T16:06:29.622Z,1.27
2022-07-27T16:08:02.855Z,1.00
2022-07-27T16:09:37.414Z,1.00
2022-07-27T16:11:10.903Z,1.23
2022-07-27T16:12:44.448Z,1.27
2022-07-27T16:14:17.869Z,0.83
2022-07-27T16:16:08.458Z,1.23
2022-07-27T16:17:41.690Z,1.10
2022-07-27T16:19:15.142Z,0.90
2022-07-27T16:20:50.701Z,1.00
2022-07-27T16:22:24.897Z,1.17
2022-07-27T16:23:59.502Z,1.27
2022-07-27T16:26:00.883Z,1.10
2022-07-27T16:27:26.015Z,1.00
2022-07-27T16:29:00.162Z,0.93
2022-07-27T16:30:38.165Z,1.07
2022-07-27T16:32:12.295Z,1.10
2022-07-27T16:33:46.009Z,1.20
2022-07-27T16:35:19.656Z,1.03
2022-07-27T16:36:55.141Z,0.90
2022-07-27T16:38:27.807Z,0.97
2022-07-27T16:40:01.030Z,1.10
2022-07-27T16:41:34.247Z,1.00
2022-07-27T16:43:07.639Z,1.13
2022-07-27T16:44:41.547Z,1.43
2022-07-27T16:46:15.032Z,1.20
2022-07-27T16:47:48.307Z,1.20
2022-07-27T16:49:21.639Z,1.00
2022-07-27T16:51:10.274Z,0.90
2022-07-27T16:52:44.877Z,1.20
2022-07-27T16:54:18.263Z,1.00
2022-07-27T16:55:52.151Z,1.00
2022-07-27T16:57:25.587Z,1.17
2022-07-27T16:58:58.793Z,1.17
2022-07-27T17:00:36.492Z,1.20
2022-07-27T17:02:12.346Z,0.90
2022-07-27T17:03:48.035Z,1.23
2022-07-27T17:05:21.297Z,1.00
2022-07-27T17:06:54.712Z,0.90
2022-07-27T17:08:29.457Z,1.43
2022-07-27T17:10:02.738Z,1.00
2022-07-27T17:11:37.434Z,1.00
2022-07-27T17:13:13.571Z,1.00
2022-07-27T17:14:47.299Z,1.00
2022-07-27T17:16:20.671Z,1.00
2022-07-27T17:17:53.969Z,1.40
2022-07-27T17:19:27.215Z,1.03
2022-07-27T17:21:00.602Z,1.00
2022-07-27T17:22:33.860Z,1.27
2022-07-27T17:24:09.575Z,0.80
2022-07-27T17:25:42.886Z,1.20
2022-07-27T17:27:16.156Z,0.90
2022-07-27T17:28:49.546Z,1.00
2022-07-27T17:30:23.710Z,1.30
2022-07-27T17:31:56.997Z,0.97
2022-07-27T17:33:30.830Z,1.00
2022-07-27T17:35:04.416Z,1.10
2022-07-27T17:36:37.645Z,1.20
2022-07-27T17:38:13.848Z,1.00
2022-07-27T17:39:48.454Z,0.90
2022-07-27T17:41:25.554Z,1.27
2022-07-27T17:42:58.879Z,0.90
2022-07-27T17:44:32.338Z,0.73
2022-07-27T17:46:05.819Z,0.93
2022-07-27T17:47:40.743Z,1.30
2022-07-27T17:49:14.450Z,1.10
2022-07-27T17:50:47.974Z,1.50
2022-07-27T17:52:21.664Z,1.10
2022-07-27T17:53:55.222Z,1.20
2022-07-27T17:55:30.023Z,1.10
2022-07-27T17:57:03.291Z,0.90
2022-07-27T17:58:36.567Z,0.90
2022-07-27T18:00:11.636Z,1.10
2022-07-27T18:01:46.970Z,1.03
2022-07-27T18:03:21.931Z,1.30
2022-07-27T18:04:55.201Z,1.30
2022-07-27T18:06:28.463Z,1.10
2022-07-27T18:08:01.738Z,1.30
2022-07-27T18:09:35.031Z,1.07
2022-07-27T18:11:13.457Z,1.40
2022-07-27T18:12:47.060Z,1.10
2022-07-27T18:14:20.339Z,0.80
2022-07-27T18:15:54.608Z,1.10
2022-07-27T18:17:28.355Z,0.93
2022-07-27T18:19:02.411Z,1.10
2022-07-27T18:20:35.878Z,0.90
2022-07-27T18:22:09.051Z,1.10
2022-07-27T18:23:42.799Z,1.10
2022-07-27T18:25:16.206Z,1.00
2022-07-27T18:26:51.389Z,1.00
2022-07-27T18:28:25.150Z,0.93
2022-07-27T18:29:58.286Z,0.93
2022-07-27T18:31:31.784Z,1.00
2022-07-27T18:33:05.453Z,1.20
2022-07-27T18:34:38.857Z,1.00
2022-07-27T18:36:12.206Z,1.00
2022-07-27T18:37:45.619Z,0.93
2022-07-27T18:39:18.846Z,1.17
2022-07-27T18:40:52.100Z,1.00
2022-07-27T18:42:26.730Z,1.50
2022-07-27T18:44:00.007Z,1.03
2022-07-27T18:45:34.162Z,1.20
2022-07-27T18:47:08.426Z,1.00
2022-07-27T18:48:41.665Z,1.13
2022-07-27T18:50:15.121Z,1.00
2022-07-27T18:51:48.313Z,1.00
2022-07-27T18:53:21.900Z,1.27
2022-07-27T18:54:55.167Z,0.90
2022-07-27T18:56:28.618Z,1.20
2022-07-27T18:58:03.465Z,1.10
2022-07-27T18:59:41.093Z,1.00
2022-07-27T19:01:14.708Z,1.10
2022-07-27T19:02:48.282Z,1.03
2022-07-27T19:04:24.817Z,0.93
2022-07-27T19:05:59.388Z,1.23
2022-07-27T19:07:33.262Z,1.10
2022-07-27T19:09:08.552Z,1.50
2022-07-27T19:10:42.124Z,1.10
2022-07-27T19:12:15.599Z,1.20
2022-07-27T19:13:50.206Z,1.30
2022-07-27T19:15:23.498Z,1.00
2022-07-27T19:16:56.833Z,1.00
2022-07-27T19:18:30.291Z,1.03
2022-07-27T19:20:03.796Z,1.00
2022-07-27T19:21:37.054Z,0.90
2022-07-27T19:23:10.248Z,1.13
2022-07-27T19:24:43.734Z,0.90
2022-07-27T19:26:17.004Z,1.10
2022-07-27T19:27:50.558Z,1.17
2022-07-27T19:29:25.096Z,1.10
2022-07-27T19:30:58.349Z,1.30
2022-07-27T19:32:31.587Z,1.10
2022-07-27T19:34:05.454Z,1.00
2022-07-27T19:35:39.625Z,1.33
2022-07-27T19:37:12.925Z,1.00
2022-07-27T19:38:46.140Z,1.17
2022-07-27T19:40:43.362Z,1.17
2022-07-27T19:42:12.588Z,1.13
2022-07-27T19:43:45.878Z,1.10
2022-07-27T19:45:20.501Z,1.20
2022-07-27T19:46:54.569Z,0.80
2022-07-27T19:48:28.243Z,1.00
2022-07-27T19:50:01.797Z,1.10
2022-07-27T19:51:35.015Z,1.00
2022-07-27T19:53:08.451Z,1.10
2022-07-27T19:54:41.983Z,1.23
2022-07-27T19:56:15.507Z,1.20
2022-07-27T19:57:48.666Z,1.10
2022-07-27T19:59:21.976Z,0.93
2022-07-27T20:00:56.742Z,1.40
2022-07-27T20:02:30.273Z,1.23
2022-07-27T20:04:07.292Z,1.40
2022-07-27T20:05:40.515Z,1.10
2022-07-27T20:07:13.998Z,1.20
2022-07-27T20:08:48.024Z,1.33
2022-07-27T20:10:22.529Z,1.20
2022-07-27T20:12:00.297Z,1.33
2022-07-27T20:13:33.887Z,1.30
2022-07-27T20:15:08.260Z,1.70
2022-07-27T20:16:44.060Z,1.30
2022-07-27T20:18:17.365Z,1.60
2022-07-27T20:19:50.594Z,1.50
2022-07-27T20:21:24.203Z,1.60
2022-07-27T20:22:57.534Z,1.50
2022-07-27T20:24:30.863Z,1.77
2022-07-27T20:26:04.114Z,1.87
2022-07-27T20:27:37.696Z,1.80
2022-07-27T20:29:11.726Z,1.80
2022-07-27T20:30:45.349Z,2.23
2022-07-27T20:32:19.994Z,2.00
2022-07-27T20:33:53.230Z,2.00
2022-07-27T20:35:37.647Z,2.10
2022-07-27T20:37:11.326Z,2.20
2022-07-27T20:38:45.113Z,1.97
2022-07-27T20:40:19.632Z,2.17
2022-07-27T20:41:52.871Z,2.13
2022-07-27T20:43:27.617Z,2.20
2022-07-27T20:45:00.826Z,2.10
2022-07-27T20:46:34.613Z,2.00
2022-07-27T20:48:09.457Z,2.30
2022-07-27T20:49:42.875Z,2.13
2022-07-27T20:51:16.183Z,2.10
2022-07-27T20:52:49.576Z,2.50
2022-07-27T20:54:29.018Z,1.80
2022-07-27T20:56:03.154Z,2.00
2022-07-27T20:57:37.173Z,1.90
2022-07-27T20:59:16.533Z,1.80
2022-07-27T21:00:50.733Z,2.00
2022-07-27T21:02:24.306Z,1.67
2022-07-27T21:03:59.515Z,1.83
2022-07-27T21:05:32.722Z,1.77
2022-07-27T21:07:05.958Z,1.93
2022-07-27T21:08:44.327Z,1.90
2022-07-27T21:10:19.369Z,1.60
2022-07-27T21:11:52.804Z,1.93
2022-07-27T21:13:25.969Z,2.03
2022-07-27T21:14:59.314Z,1.70
2022-07-27T21:16:32.744Z,2.00